createdAt,value
2022-11-16T00:01:26.969Z,0.57
2022-11-16T00:03:54.407Z,0.63
2022-11-16T00:06:21.133Z,0.40
2022-11-16T00:09:08.781Z,0.43
2022-11-16T00:11:35.290Z,0.40
2022-11-16T00:14:02.659Z,0.50
2022-11-16T00:16:29.125Z,0.50
2022-11-16T00:18:59.736Z,0.50
2022-11-16T00:21:26.618Z,0.60
2022-11-16T00:23:53.069Z,0.38
2022-11-16T00:26:19.508Z,0.70
2022-11-16T00:28:46.254Z,0.40
2022-11-16T00:31:12.647Z,0.40
2022-11-16T00:33:39.298Z,0.70
2022-11-16T00:36:07.133Z,0.63
2022-11-16T00:38:34.207Z,0.40
2022-11-16T00:41:00.899Z,0.50
2022-11-16T00:43:27.657Z,0.60
2022-11-16T00:45:54.036Z,0.50
2022-11-16T00:48:20.402Z,0.57
2022-11-16T00:50:47.414Z,0.30
2022-11-16T00:53:15.811Z,0.50
2022-11-16T00:55:43.216Z,0.60
2022-11-16T00:58:09.704Z,0.60
2022-11-16T01:00:36.301Z,0.57
2022-11-16T01:03:03.069Z,0.50
2022-11-16T01:05:29.420Z,0.70
2022-11-16T01:07:55.819Z,0.30
2022-11-16T01:10:22.807Z,0.40
2022-11-16T01:12:50.023Z,0.32
2022-11-16T01:15:17.284Z,0.60
2022-11-16T01:17:44.120Z,0.20
2022-11-16T01:20:12.956Z,0.40
2022-11-16T01:22:39.954Z,0.38
2022-11-16T01:25:07.147Z,0.35
2022-11-16T01:27:33.640Z,0.43
2022-11-16T01:29:59.995Z,0.20
2022-11-16T01:32:26.427Z,0.30
2022-11-16T01:34:52.869Z,0.73
2022-11-16T01:37:19.306Z,0.40
2022-11-16T01:39:45.650Z,0.43
2022-11-16T01:42:19.199Z,0.20
2022-11-16T01:44:45.508Z,0.30
2022-11-16T01:47:13.162Z,0.30
2022-11-16T01:49:41.921Z,0.30
2022-11-16T01:52:11.612Z,0.28
2022-11-16T01:54:39.698Z,0.30
2022-11-16T01:57:07.896Z,0.30
2022-11-16T01:59:34.440Z,0.68
2022-11-16T02:02:01.717Z,0.30
2022-11-16T02:04:28.423Z,0.40
2022-11-16T02:07:01.087Z,0.50
2022-11-16T02:09:51.408Z,0.98
2022-11-16T02:12:36.326Z,0.20
2022-11-16T02:15:14.466Z,0.30
2022-11-16T02:17:43.845Z,0.30
2022-11-16T02:20:16.753Z,0.30
2022-11-16T02:23:03.118Z,0.63
2022-11-16T02:25:46.759Z,0.38
2022-11-16T02:28:16.224Z,0.20
2022-11-16T02:33:13.501Z,0.28
2022-11-16T02:35:45.259Z,0.30
2022-11-16T02:38:14.363Z,0.28
2022-11-16T02:40:42.874Z,0.40
2022-11-16T02:43:11.361Z,0.30
2022-11-16T02:45:40.506Z,0.30
2022-11-16T02:48:11.036Z,0.20
2022-11-16T02:50:38.225Z,0.30
2022-11-16T02:53:04.617Z,0.30
2022-11-16T02:55:33.102Z,0.30
2022-11-16T02:58:01.345Z,0.30
2022-11-16T03:00:35.504Z,0.35
2022-11-16T03:03:07.951Z,0.32
2022-11-16T03:05:44.284Z,0.47
2022-11-16T03:08:13.474Z,0.35
2022-11-16T03:10:59.569Z,0.30
2022-11-16T03:13:28.355Z,0.30
2022-11-16T03:15:56.185Z,0.32
2022-11-16T03:18:24.023Z,0.50
2022-11-16T03:20:52.550Z,0.30
2022-11-16T03:23:18.974Z,0.40
2022-11-16T03:25:49.067Z,0.20
2022-11-16T03:28:25.513Z,0.55
2022-11-16T03:30:59.016Z,0.45
2022-11-16T03:33:45.784Z,0.30
2022-11-16T03:36:24.207Z,0.30
2022-11-16T03:38:50.910Z,0.32
2022-11-16T03:41:18.445Z,0.40
2022-11-16T03:43:45.625Z,0.45
2022-11-16T03:46:12.264Z,0.20
2022-11-16T03:48:39.414Z,0.32
2022-11-16T03:51:07.643Z,0.28
2022-11-16T03:53:34.163Z,0.28
2022-11-16T03:56:00.700Z,0.40
2022-11-16T03:58:27.073Z,0.30
2022-11-16T04:00:53.847Z,0.25
2022-11-16T04:03:20.774Z,0.25
2022-11-16T04:06:06.708Z,0.40
2022-11-16T04:08:51.561Z,0.50
2022-11-16T04:11:38.787Z,0.25
2022-11-16T04:14:24.171Z,0.28
2022-11-16T04:17:09.297Z,0.30
2022-11-16T04:19:56.854Z,0.20
2022-11-16T04:22:45.599Z,0.50
2022-11-16T04:25:14.260Z,0.47
2022-11-16T04:27:59.337Z,0.30
2022-11-16T04:30:25.759Z,0.35
2022-11-16T04:33:10.833Z,0.38
2022-11-16T04:35:55.721Z,0.20
2022-11-16T04:38:22.109Z,0.20
2022-11-16T04:40:48.488Z,0.30
2022-11-16T04:43:14.854Z,0.20
2022-11-16T04:45:59.680Z,0.50
2022-11-16T04:48:26.052Z,0.20
2022-11-16T04:50:52.612Z,0.35
2022-11-16T04:53:20.358Z,0.20
2022-11-16T04:55:46.747Z,0.30
2022-11-16T04:58:13.112Z,0.30
2022-11-16T05:00:39.497Z,0.28
2022-11-16T05:03:05.854Z,0.45
2022-11-16T05:05:32.227Z,0.30
2022-11-16T05:07:58.634Z,0.30
2022-11-16T05:10:25.013Z,0.30
2022-11-16T05:12:51.328Z,0.32
2022-11-16T05:15:19.765Z,0.43
2022-11-16T05:17:46.804Z,0.30
2022-11-16T05:20:31.674Z,0.45
2022-11-16T05:22:58.566Z,0.30
2022-11-16T05:25:25.090Z,0.35
2022-11-16T05:27:51.455Z,0.50
2022-11-16T05:30:17.898Z,0.30
2022-11-16T05:32:44.284Z,0.30
2022-11-16T05:35:11.014Z,0.45
2022-11-16T05:37:37.510Z,0.40
2022-11-16T05:40:04.058Z,0.35
2022-11-16T05:42:38.667Z,0.63
2022-11-16T05:45:05.251Z,0.25
2022-11-16T05:47:31.645Z,0.25
2022-11-16T05:49:58.746Z,0.30
2022-11-16T05:52:25.124Z,0.50
2022-11-16T05:54:51.488Z,0.43
2022-11-16T05:57:18.181Z,0.40
2022-11-16T05:59:44.640Z,0.22
2022-11-16T06:02:10.964Z,0.30
2022-11-16T06:04:37.334Z,0.30
2022-11-16T06:07:03.846Z,0.45
2022-11-16T06:09:30.180Z,0.28
2022-11-16T06:11:56.555Z,0.65
2022-11-16T06:14:22.959Z,0.25
2022-11-16T06:16:49.279Z,0.30
2022-11-16T06:19:15.726Z,0.30
2022-11-16T06:21:42.126Z,0.35
2022-11-16T06:24:09.525Z,0.40
2022-11-16T06:26:36.459Z,0.40
2022-11-16T06:29:03.139Z,0.40
2022-11-16T06:31:29.896Z,0.30
2022-11-16T06:33:56.282Z,0.43
2022-11-16T06:36:22.680Z,0.40
2022-11-16T06:38:49.249Z,0.40
2022-11-16T06:41:15.633Z,0.38
2022-11-16T06:43:42.002Z,0.55
2022-11-16T06:46:08.698Z,0.30
2022-11-16T06:48:35.603Z,0.20
2022-11-16T06:51:02.340Z,0.32
2022-11-16T06:53:29.600Z,0.68
2022-11-16T06:56:00.338Z,0.40
2022-11-16T06:58:28.444Z,0.30
2022-11-16T07:00:54.880Z,0.47
2022-11-16T07:03:21.265Z,0.40
2022-11-16T07:05:47.575Z,0.45
2022-11-16T07:08:13.907Z,0.82
2022-11-16T07:10:40.748Z,0.40
2022-11-16T07:13:07.138Z,0.50
2022-11-16T07:15:33.716Z,0.35
2022-11-16T07:18:07.003Z,0.20
2022-11-16T07:20:34.057Z,0.20
2022-11-16T07:23:03.895Z,0.30
2022-11-16T07:25:31.743Z,0.22
2022-11-16T07:27:58.475Z,0.20
2022-11-16T07:30:25.281Z,0.38
2022-11-16T07:32:51.623Z,0.40
2022-11-16T07:35:17.996Z,0.28
2022-11-16T07:37:44.360Z,0.30
2022-11-16T07:40:10.909Z,0.40
2022-11-16T07:42:37.287Z,0.50
2022-11-16T07:45:03.862Z,0.30
2022-11-16T07:47:35.220Z,0.40
2022-11-16T07:50:02.682Z,0.30
2022-11-16T07:52:29.083Z,0.40
2022-11-16T07:54:55.478Z,0.40
2022-11-16T07:57:21.909Z,0.47
2022-11-16T07:59:48.297Z,0.30
2022-11-16T08:02:14.745Z,0.40
2022-11-16T08:04:41.182Z,0.45
2022-11-16T08:07:07.568Z,0.50
2022-11-16T08:09:34.764Z,0.40
2022-11-16T08:12:01.112Z,0.40
2022-11-16T08:14:27.448Z,0.30
2022-11-16T08:16:53.798Z,0.43
2022-11-16T08:19:20.109Z,0.30
2022-11-16T08:21:46.472Z,0.60
2022-11-16T08:24:12.850Z,0.40
2022-11-16T08:26:39.201Z,0.47
2022-11-16T08:29:05.523Z,0.28
2022-11-16T08:31:32.046Z,0.32
2022-11-16T08:33:59.920Z,0.68
2022-11-16T08:36:26.416Z,0.38
2022-11-16T08:38:53.249Z,0.50
2022-11-16T08:41:20.030Z,0.32
2022-11-16T08:43:50.725Z,0.50
2022-11-16T08:46:17.661Z,0.40
2022-11-16T08:48:44.472Z,0.40
2022-11-16T08:51:20.598Z,0.40
2022-11-16T08:53:48.463Z,0.60
2022-11-16T08:56:15.898Z,0.40
2022-11-16T08:58:43.678Z,0.40
2022-11-16T09:01:11.112Z,0.57
2022-11-16T09:03:40.737Z,0.38
2022-11-16T09:06:07.592Z,0.40
2022-11-16T09:08:34.599Z,0.30
2022-11-16T09:11:03.856Z,0.50
2022-11-16T09:13:30.189Z,0.65
2022-11-16T09:15:57.464Z,0.40
2022-11-16T09:18:23.941Z,0.57
2022-11-16T09:20:50.427Z,0.40
2022-11-16T09:23:20.931Z,0.35
2022-11-16T09:25:51.471Z,0.45
2022-11-16T09:28:18.496Z,0.40
2022-11-16T09:30:45.624Z,0.40
2022-11-16T09:33:12.380Z,0.30
2022-11-16T09:35:39.537Z,0.32
2022-11-16T09:38:06.228Z,0.30
2022-11-16T09:40:37.893Z,0.40
2022-11-16T09:43:04.335Z,0.20
2022-11-16T09:45:42.892Z,0.45
2022-11-16T09:48:12.417Z,0.50
2022-11-16T09:50:48.546Z,0.60
2022-11-16T09:53:34.181Z,0.60
2022-11-16T09:56:08.746Z,0.47
2022-11-16T09:58:45.976Z,0.40
2022-11-16T10:01:38.368Z,0.30
2022-11-16T10:04:11.258Z,0.40
2022-11-16T10:06:41.718Z,0.30
2022-11-16T10:09:11.159Z,0.32
2022-11-16T10:14:06.843Z,0.38
2022-11-16T10:19:08.888Z,0.50
2022-11-16T10:21:37.980Z,0.50
2022-11-16T10:24:10.563Z,0.38
2022-11-16T10:26:36.906Z,0.40
2022-11-16T10:29:31.263Z,0.50
2022-11-16T10:32:02.900Z,0.50
2022-11-16T10:34:35.113Z,0.50
2022-11-16T10:37:08.453Z,0.60
2022-11-16T10:39:36.657Z,0.50
2022-11-16T10:42:11.025Z,0.90
2022-11-16T10:44:56.247Z,1.10
2022-11-16T10:47:41.778Z,0.60
2022-11-16T10:50:23.604Z,0.60
2022-11-16T10:52:49.944Z,0.47
2022-11-16T10:55:16.363Z,0.60
2022-11-16T10:57:56.996Z,0.50
2022-11-16T11:00:44.943Z,0.40
2022-11-16T11:03:12.035Z,0.40
2022-11-16T11:05:47.246Z,0.47
2022-11-16T11:08:23.704Z,0.50
2022-11-16T11:10:57.190Z,0.40
2022-11-16T11:13:26.556Z,0.50
2022-11-16T11:18:25.640Z,0.50
2022-11-16T11:21:04.531Z,0.40
2022-11-16T11:23:37.588Z,0.40
2022-11-16T11:26:04.853Z,0.30
2022-11-16T11:28:32.569Z,0.40
2022-11-16T11:31:25.665Z,0.50
2022-11-16T11:33:53.308Z,0.32
2022-11-16T11:36:21.255Z,0.75
2022-11-16T11:39:00.258Z,0.40
2022-11-16T11:41:32.357Z,0.52
2022-11-16T11:44:14.016Z,0.60
2022-11-16T11:47:28.537Z,0.60
2022-11-16T11:49:35.095Z,0.55
2022-11-16T11:52:33.702Z,0.50
2022-11-16T11:55:00.988Z,0.50
2022-11-16T11:57:27.437Z,0.55
2022-11-16T11:59:54.456Z,0.50
2022-11-16T12:02:45.442Z,0.50
2022-11-16T12:05:34.999Z,0.60
2022-11-16T12:08:07.143Z,0.50
2022-11-16T12:10:40.511Z,0.70
2022-11-16T12:13:25.066Z,0.60
2022-11-16T12:16:10.329Z,0.70
2022-11-16T12:18:55.594Z,0.60
2022-11-16T12:21:29.579Z,0.70
2022-11-16T12:24:34.676Z,0.70
2022-11-16T12:27:01.227Z,0.52
2022-11-16T12:29:43.059Z,0.70
2022-11-16T12:32:25.404Z,0.47
2022-11-16T12:34:52.495Z,0.63
2022-11-16T12:37:33.504Z,0.65
2022-11-16T12:40:08.326Z,0.60
2022-11-16T12:42:40.801Z,0.90
2022-11-16T12:45:14.401Z,1.00
2022-11-16T12:47:43.731Z,0.40
2022-11-16T12:50:16.438Z,0.60
2022-11-16T12:52:42.864Z,0.50
2022-11-16T12:55:26.500Z,0.88
2022-11-16T12:58:06.121Z,0.52
2022-11-16T13:00:39.614Z,0.50
2022-11-16T13:03:20.154Z,0.60
2022-11-16T13:05:52.632Z,0.63
2022-11-16T13:08:28.272Z,0.80
2022-11-16T13:10:57.526Z,0.68
2022-11-16T13:13:36.385Z,0.70
2022-11-16T13:16:05.113Z,0.60
2022-11-16T13:18:33.035Z,0.70
2022-11-16T13:21:17.825Z,0.80
2022-11-16T13:23:47.998Z,0.60
2022-11-16T13:26:23.343Z,0.57
2022-11-16T13:28:49.721Z,0.70
2022-11-16T13:31:35.193Z,0.90
2022-11-16T13:34:03.240Z,0.70
2022-11-16T13:36:32.329Z,0.65
2022-11-16T13:38:58.729Z,0.80
2022-11-16T13:41:33.532Z,0.80
2022-11-16T13:44:00.378Z,0.73
2022-11-16T13:46:56.161Z,0.90
2022-11-16T13:49:27.704Z,0.80
2022-11-16T13:52:07.032Z,0.73
2022-11-16T13:54:50.369Z,0.80
2022-11-16T13:57:20.320Z,0.88
2022-11-16T13:59:47.868Z,1.45
2022-11-16T14:02:28.588Z,1.00
2022-11-16T14:04:56.619Z,0.80
2022-11-16T14:07:29.280Z,0.73
2022-11-16T14:09:55.801Z,1.00
2022-11-16T14:12:37.261Z,0.90
2022-11-16T14:15:12.798Z,0.60
2022-11-16T14:18:09.537Z,0.70
2022-11-16T14:20:43.742Z,0.82
2022-11-16T14:23:16.153Z,0.80
2022-11-16T14:25:51.735Z,0.75
2022-11-16T14:28:29.070Z,0.88
2022-11-16T14:31:14.758Z,0.75
2022-11-16T14:33:41.263Z,0.93
2022-11-16T14:36:09.047Z,0.40
2022-11-16T14:38:37.629Z,0.40
2022-11-16T14:41:11.734Z,0.40
2022-11-16T14:43:45.708Z,0.70
2022-11-16T14:46:27.497Z,0.38
2022-11-16T14:48:59.211Z,0.50
2022-11-16T14:51:27.116Z,0.40
2022-11-16T14:54:13.147Z,0.47
2022-11-16T14:56:54.873Z,0.30
2022-11-16T14:59:21.243Z,0.25
2022-11-16T15:01:47.899Z,0.43
2022-11-16T15:04:16.677Z,0.45
2022-11-16T15:06:51.945Z,0.60
2022-11-16T15:09:24.270Z,0.43
2022-11-16T15:12:09.736Z,0.40
2022-11-16T15:14:45.752Z,0.50
2022-11-16T15:17:14.916Z,0.60
2022-11-16T15:19:41.257Z,0.70
2022-11-16T15:22:13.463Z,0.40
2022-11-16T15:24:39.813Z,0.60
2022-11-16T15:27:06.157Z,0.65
2022-11-16T15:29:32.578Z,0.50
2022-11-16T15:31:59.037Z,0.55
2022-11-16T15:34:25.371Z,0.35
2022-11-16T15:36:51.694Z,0.65
2022-11-16T15:39:23.047Z,0.55
2022-11-16T15:41:50.052Z,0.47
2022-11-16T15:44:18.245Z,0.50
2022-11-16T15:46:47.468Z,0.70
2022-11-16T15:49:23.051Z,0.40
2022-11-16T15:51:49.422Z,0.40
2022-11-16T15:54:26.328Z,0.50
2022-11-16T15:56:54.947Z,0.52
2022-11-16T15:59:26.537Z,0.43
2022-11-16T16:01:53.044Z,0.55
2022-11-16T16:04:19.430Z,0.40
2022-11-16T16:06:48.679Z,0.40
2022-11-16T16:09:17.817Z,0.30
2022-11-16T16:11:44.386Z,0.30
2022-11-16T16:14:20.790Z,0.55
2022-11-16T16:16:49.873Z,0.40
2022-11-16T16:19:31.299Z,0.55
2022-11-16T16:21:59.497Z,0.50
2022-11-16T16:24:34.689Z,0.40
2022-11-16T16:27:01.347Z,0.80
2022-11-16T16:29:28.454Z,0.30
2022-11-16T16:31:55.598Z,0.57
2022-11-16T16:34:22.049Z,0.40
2022-11-16T16:36:48.492Z,0.60
2022-11-16T16:39:23.536Z,0.30
2022-11-16T16:41:49.971Z,0.40
2022-11-16T16:44:16.525Z,0.73
2022-11-16T16:46:42.929Z,0.60
2022-11-16T16:49:09.624Z,0.63
2022-11-16T16:51:36.049Z,0.40
2022-11-16T16:54:02.541Z,0.40
2022-11-16T16:56:29.188Z,0.68
2022-11-16T16:58:55.540Z,0.50
2022-11-16T17:01:21.960Z,0.40
2022-11-16T17:03:48.354Z,0.60
2022-11-16T17:06:14.839Z,0.32
2022-11-16T17:08:41.661Z,0.60
2022-11-16T17:11:09.005Z,0.40
2022-11-16T17:13:35.773Z,0.70
2022-11-16T17:16:04.190Z,0.55
2022-11-16T17:18:30.526Z,0.70
2022-11-16T17:21:02.732Z,0.50
2022-11-16T17:23:29.308Z,0.60
2022-11-16T17:25:55.722Z,0.50
2022-11-16T17:28:22.108Z,0.50
2022-11-16T17:30:48.522Z,0.52
2022-11-16T17:33:14.875Z,0.55
2022-11-16T17:35:41.600Z,0.70
2022-11-16T17:38:09.773Z,0.70
2022-11-16T17:40:36.343Z,0.70
2022-11-16T17:43:03.306Z,0.63
2022-11-16T17:45:29.644Z,0.50
2022-11-16T17:47:56.015Z,0.77
2022-11-16T17:50:22.516Z,1.42
2022-11-16T17:52:48.826Z,1.20
2022-11-16T17:55:15.214Z,0.85
2022-11-16T17:57:41.587Z,0.98
2022-11-16T18:00:08.210Z,1.00
2022-11-16T18:02:34.879Z,1.10
2022-11-16T18:05:01.211Z,1.30
2022-11-16T18:07:29.816Z,0.93
2022-11-16T18:09:56.250Z,0.80
2022-11-16T18:12:22.642Z,0.95
2022-11-16T18:15:13.526Z,0.60
2022-11-16T18:17:36.583Z,0.55
2022-11-16T18:20:04.733Z,0.75
2022-11-16T18:22:31.139Z,0.60
2022-11-16T18:24:57.526Z,0.50
2022-11-16T18:27:23.902Z,0.65
2022-11-16T18:29:50.209Z,0.60
2022-11-16T18:32:16.561Z,0.73
2022-11-16T18:34:42.953Z,0.75
2022-11-16T18:37:09.432Z,0.63
2022-11-16T18:39:35.815Z,0.65
2022-11-16T18:42:02.470Z,0.70
2022-11-16T18:44:28.866Z,0.75
2022-11-16T18:46:55.229Z,0.63
2022-11-16T18:49:21.627Z,0.70
2022-11-16T18:51:48.038Z,0.70
2022-11-16T18:54:14.449Z,0.90
2022-11-16T18:56:40.762Z,0.77
2022-11-16T18:59:07.141Z,0.60
2022-11-16T19:01:33.730Z,0.98
2022-11-16T19:04:00.639Z,0.70
2022-11-16T19:06:26.991Z,0.80
2022-11-16T19:08:56.406Z,0.70
2022-11-16T19:13:52.241Z,1.67
2022-11-16T19:16:18.603Z,0.77
2022-11-16T19:18:44.963Z,0.75
2022-11-16T19:21:12.485Z,0.80
2022-11-16T19:23:46.297Z,0.80
2022-11-16T19:26:13.919Z,0.60
2022-11-16T19:28:41.497Z,0.68
2022-11-16T19:31:12.997Z,0.70
2022-11-16T19:33:39.478Z,0.60
2022-11-16T19:36:09.244Z,0.80
2022-11-16T19:38:35.950Z,1.17
2022-11-16T19:41:02.383Z,0.60
2022-11-16T19:43:28.761Z,0.68
2022-11-16T19:45:55.146Z,0.60
2022-11-16T19:48:21.517Z,0.80
2022-11-16T19:50:48.286Z,0.80
2022-11-16T19:53:14.820Z,0.80
2022-11-16T19:55:41.816Z,0.68
2022-11-16T19:58:08.276Z,0.90
2022-11-16T20:00:34.662Z,0.70
2022-11-16T20:03:01.129Z,0.80
2022-11-16T20:05:29.974Z,0.80
2022-11-16T20:07:57.615Z,0.82
2022-11-16T20:10:23.933Z,0.80
2022-11-16T20:12:50.317Z,0.85
2022-11-16T20:15:16.707Z,0.80
2022-11-16T20:17:43.120Z,0.80
2022-11-16T20:20:09.622Z,0.70
2022-11-16T20:22:36.032Z,0.75
2022-11-16T20:25:02.413Z,0.50
2022-11-16T20:27:28.762Z,0.75
2022-11-16T20:29:55.175Z,0.70
2022-11-16T20:32:21.887Z,1.05
2022-11-16T20:34:48.199Z,0.68
2022-11-16T20:37:16.723Z,0.75
2022-11-16T20:39:45.868Z,0.50
2022-11-16T20:42:13.252Z,0.70
2022-11-16T20:44:39.686Z,0.60
2022-11-16T20:47:06.479Z,0.73
2022-11-16T20:49:32.911Z,0.65
2022-11-16T20:51:59.490Z,0.50
2022-11-16T20:54:27.195Z,0.70
2022-11-16T20:56:53.928Z,0.73
2022-11-16T20:59:20.350Z,0.45
2022-11-16T21:01:48.780Z,0.60
2022-11-16T21:04:15.490Z,0.73
2022-11-16T21:06:41.853Z,0.68
2022-11-16T21:09:10.672Z,0.70
2022-11-16T21:11:55.745Z,0.60
2022-11-16T21:14:22.602Z,0.60
2022-11-16T21:16:49.243Z,0.60
2022-11-16T21:19:18.005Z,0.70
2022-11-16T21:21:44.564Z,0.80
2022-11-16T21:24:11.036Z,0.65
2022-11-16T21:26:37.533Z,0.70
2022-11-16T21:29:04.239Z,0.80
2022-11-16T21:31:32.052Z,0.77
2022-11-16T21:34:00.603Z,0.93
2022-11-16T21:36:27.425Z,0.98
2022-11-16T21:38:53.939Z,0.82
2022-11-16T21:41:21.576Z,0.95
2022-11-16T21:43:48.289Z,0.75
2022-11-16T21:46:18.960Z,0.68
2022-11-16T21:48:47.360Z,0.80
2022-11-16T21:51:15.234Z,0.55
2022-11-16T21:53:41.987Z,0.82
2022-11-16T21:56:11.535Z,0.60
2022-11-16T22:01:04.209Z,0.60
2022-11-16T22:03:31.642Z,0.80
2022-11-16T22:06:18.126Z,0.60
2022-11-16T22:08:45.048Z,0.80
2022-11-16T22:11:11.694Z,0.70
2022-11-16T22:13:38.527Z,0.90
2022-11-16T22:16:09.018Z,0.93
2022-11-16T22:18:35.524Z,0.60
2022-11-16T22:21:02.183Z,0.73
2022-11-16T22:23:28.649Z,0.68
2022-11-16T22:25:55.382Z,0.98
2022-11-16T22:28:21.833Z,0.80
2022-11-16T22:30:51.707Z,0.73
2022-11-16T22:33:18.707Z,0.60
2022-11-16T22:35:46.855Z,0.85
2022-11-16T22:38:13.268Z,0.70
2022-11-16T22:40:39.615Z,0.82
2022-11-16T22:43:06.009Z,0.80
2022-11-16T22:45:32.396Z,0.90
2022-11-16T22:47:58.862Z,0.90
2022-11-16T22:50:25.257Z,0.77
2022-11-16T22:52:51.927Z,0.70
2022-11-16T22:55:18.367Z,0.90
2022-11-16T22:57:44.841Z,0.82
2022-11-16T23:00:12.267Z,0.80
2022-11-16T23:02:38.587Z,0.93
2022-11-16T23:05:05.129Z,0.80
2022-11-16T23:07:31.533Z,0.52
2022-11-16T23:09:57.898Z,1.13
2022-11-16T23:12:43.046Z,0.73
2022-11-16T23:15:30.485Z,0.77
2022-11-16T23:17:57.182Z,1.20
2022-11-16T23:20:42.300Z,0.88
2022-11-16T23:23:35.753Z,0.85
2022-11-16T23:26:21.922Z,0.80
2022-11-16T23:28:48.609Z,0.68
2022-11-16T23:31:14.993Z,0.80
2022-11-16T23:33:44.092Z,0.80
2022-11-16T23:36:11.419Z,0.57
2022-11-16T23:38:37.738Z,0.70
2022-11-16T23:41:24.295Z,0.60
2022-11-16T23:43:59.996Z,0.70
2022-11-16T23:46:30.605Z,0.43
2022-11-16T23:48:57.513Z,0.68
2022-11-16T23:51:24.336Z,0.38
2022-11-16T23:53:52.018Z,0.60
2022-11-16T23:56:18.793Z,0.50
2022-11-16T23:58:45.165Z,0.82
